createdAt,value
2023-03-25T00:00:28.721Z,10.96
2023-03-25T00:02:57.102Z,11.01
2023-03-25T00:05:28.000Z,11.02
2023-03-25T00:07:56.476Z,11.06
2023-03-25T00:10:24.558Z,11.03
2023-03-25T00:12:52.996Z,11.04
2023-03-25T00:15:22.385Z,11.07
2023-03-25T00:17:50.786Z,10.95
2023-03-25T00:20:18.975Z,10.95
2023-03-25T00:22:48.435Z,10.96
2023-03-25T00:25:19.337Z,10.94
2023-03-25T00:27:51.085Z,10.93
2023-03-25T00:30:21.238Z,10.94
2023-03-25T00:32:52.932Z,10.90
2023-03-25T00:35:24.214Z,10.85
2023-03-25T00:37:57.813Z,10.83
2023-03-25T00:40:26.130Z,10.82
2023-03-25T00:42:54.220Z,10.85
2023-03-25T00:45:22.474Z,10.84
2023-03-25T00:47:52.445Z,10.80
2023-03-25T00:50:21.576Z,10.71
2023-03-25T00:52:50.237Z,10.69
2023-03-25T00:55:20.125Z,10.64
2023-03-25T00:57:48.371Z,10.62
2023-03-25T01:00:19.685Z,10.64
2023-03-25T01:02:53.916Z,10.55
2023-03-25T01:05:22.618Z,10.58
2023-03-25T01:07:51.927Z,10.57
2023-03-25T01:10:21.556Z,10.54
2023-03-25T01:12:50.125Z,10.56
2023-03-25T01:15:19.796Z,10.56
2023-03-25T01:17:48.640Z,10.54
2023-03-25T01:20:16.926Z,10.59
2023-03-25T01:22:45.119Z,10.56
2023-03-25T01:25:13.406Z,10.56
2023-03-25T01:27:42.902Z,10.42
2023-03-25T01:30:12.380Z,10.39
2023-03-25T01:32:40.869Z,10.39
2023-03-25T01:35:10.992Z,10.43
2023-03-25T01:37:39.320Z,10.39
2023-03-25T01:40:10.456Z,10.35
2023-03-25T01:42:38.659Z,10.34
2023-03-25T01:45:21.153Z,10.32
2023-03-25T01:47:52.958Z,10.24
2023-03-25T01:50:22.132Z,10.23
2023-03-25T01:52:53.661Z,10.16
2023-03-25T01:55:23.383Z,10.17
2023-03-25T01:57:56.009Z,10.20
2023-03-25T02:00:26.728Z,10.16
2023-03-25T02:02:59.426Z,10.18
2023-03-25T02:05:36.069Z,10.17
2023-03-25T02:08:09.269Z,10.18
2023-03-25T02:10:38.361Z,10.24
2023-03-25T02:13:07.600Z,10.26
2023-03-25T02:15:50.326Z,10.34
2023-03-25T02:18:39.844Z,10.35
2023-03-25T02:21:35.809Z,10.43
2023-03-25T02:24:45.935Z,10.36
2023-03-25T02:27:28.450Z,10.33
2023-03-25T02:30:26.680Z,10.32
2023-03-25T02:33:45.859Z,10.33
2023-03-25T02:36:35.493Z,10.33
2023-03-25T02:39:08.899Z,10.34
2023-03-25T02:41:44.622Z,10.35
2023-03-25T02:44:16.165Z,10.29
2023-03-25T02:46:49.765Z,10.28
2023-03-25T02:49:24.273Z,10.31
2023-03-25T02:51:57.921Z,10.21
2023-03-25T02:54:30.448Z,10.23
2023-03-25T02:57:01.048Z,10.24
2023-03-25T02:59:33.547Z,10.22
2023-03-25T03:02:06.043Z,10.20
2023-03-25T03:04:34.273Z,10.17
2023-03-25T03:07:02.594Z,10.13
2023-03-25T03:09:40.968Z,10.12
2023-03-25T03:12:18.507Z,10.11
2023-03-25T03:14:57.596Z,10.12
2023-03-25T03:17:34.023Z,10.11
2023-03-25T03:20:13.302Z,10.15
2023-03-25T03:22:45.867Z,10.12
2023-03-25T03:25:27.599Z,10.13
2023-03-25T03:27:58.443Z,10.10
2023-03-25T03:30:32.647Z,10.12
2023-03-25T03:33:10.232Z,10.15
2023-03-25T03:35:44.109Z,10.07
2023-03-25T03:38:16.438Z,10.11
2023-03-25T03:40:52.309Z,10.08
2023-03-25T03:43:27.128Z,10.01
2023-03-25T03:45:59.495Z,10.06
2023-03-25T03:48:32.513Z,10.03
2023-03-25T03:51:04.538Z,9.95
2023-03-25T03:53:36.304Z,9.96
2023-03-25T03:56:09.543Z,9.92
2023-03-25T03:58:41.946Z,9.92
2023-03-25T04:01:15.522Z,9.93
2023-03-25T04:03:50.720Z,9.93
2023-03-25T04:06:24.625Z,9.93
2023-03-25T04:08:59.855Z,9.92
2023-03-25T04:11:35.668Z,9.84
2023-03-25T04:14:05.469Z,9.86
2023-03-25T04:16:36.002Z,9.86
2023-03-25T04:19:05.467Z,9.88
2023-03-25T04:21:33.612Z,9.83
2023-03-25T04:24:01.824Z,9.82
2023-03-25T04:26:34.281Z,9.82
2023-03-25T04:29:03.827Z,9.82
2023-03-25T04:31:33.855Z,9.77
2023-03-25T04:34:03.070Z,9.70
2023-03-25T04:36:33.816Z,9.74
2023-03-25T04:39:02.331Z,9.71
2023-03-25T04:41:32.216Z,9.74
2023-03-25T04:44:00.498Z,9.74
2023-03-25T04:46:28.677Z,9.72
2023-03-25T04:48:57.167Z,9.67
2023-03-25T04:51:25.337Z,9.68
2023-03-25T04:53:53.505Z,9.66
2023-03-25T04:56:23.474Z,9.67
2023-03-25T04:58:53.452Z,9.63
2023-03-25T05:01:30.978Z,9.65
2023-03-25T05:04:05.689Z,9.61
2023-03-25T05:06:35.000Z,9.61
2023-03-25T05:09:04.897Z,9.61
2023-03-25T05:11:35.103Z,9.63
2023-03-25T05:14:04.825Z,9.63
2023-03-25T05:16:33.156Z,9.64
2023-03-25T05:19:01.333Z,9.63
2023-03-25T05:21:29.409Z,9.63
2023-03-25T05:23:58.260Z,9.60
2023-03-25T05:26:29.468Z,9.62
2023-03-25T05:29:01.630Z,9.63
2023-03-25T05:31:31.896Z,9.65
2023-03-25T05:34:00.078Z,9.73
2023-03-25T05:36:28.445Z,9.74
2023-03-25T05:38:58.317Z,9.81
2023-03-25T05:41:32.796Z,9.78
2023-03-25T05:44:01.908Z,9.85
2023-03-25T05:46:31.379Z,9.85
2023-03-25T05:49:01.011Z,9.83
2023-03-25T05:51:33.893Z,9.89
2023-03-25T05:54:02.683Z,9.79
2023-03-25T05:56:30.953Z,9.77
2023-03-25T05:58:59.293Z,9.83
2023-03-25T06:01:33.237Z,9.90
2023-03-25T06:04:03.788Z,9.89
2023-03-25T06:06:34.500Z,9.85
2023-03-25T06:09:04.393Z,9.74
2023-03-25T06:11:38.297Z,9.71
2023-03-25T06:14:07.694Z,9.72
2023-03-25T06:16:36.186Z,9.71
2023-03-25T06:19:09.506Z,9.70
2023-03-25T06:21:38.384Z,9.74
2023-03-25T06:24:07.179Z,9.75
2023-03-25T06:26:35.438Z,9.87
2023-03-25T06:29:04.290Z,9.91
2023-03-25T06:31:34.189Z,10.00
2023-03-25T06:34:03.274Z,10.16
2023-03-25T06:36:34.857Z,10.23
2023-03-25T06:39:05.203Z,10.29
2023-03-25T06:41:35.974Z,10.38
2023-03-25T06:44:27.273Z,10.52
2023-03-25T06:47:14.027Z,10.63
2023-03-25T06:49:47.314Z,10.80
2023-03-25T06:52:17.053Z,10.97
2023-03-25T06:54:45.407Z,11.10
2023-03-25T06:57:13.727Z,11.10
2023-03-25T06:59:41.976Z,11.08
2023-03-25T07:02:13.413Z,11.14
2023-03-25T07:04:44.242Z,11.12
2023-03-25T07:07:12.434Z,11.08
2023-03-25T07:09:41.994Z,10.83
2023-03-25T07:12:10.386Z,10.78
2023-03-25T07:14:41.029Z,10.83
2023-03-25T07:17:09.319Z,10.74
2023-03-25T07:19:37.568Z,10.69
2023-03-25T07:22:06.572Z,10.73
2023-03-25T07:24:34.925Z,10.78
2023-03-25T07:27:04.774Z,10.81
2023-03-25T07:29:34.512Z,10.83
2023-03-25T07:32:02.622Z,10.91
2023-03-25T07:34:31.024Z,10.92
2023-03-25T07:36:59.352Z,11.19
2023-03-25T07:39:27.690Z,11.27
2023-03-25T07:41:56.215Z,11.39
2023-03-25T07:44:46.004Z,11.66
2023-03-25T07:47:14.154Z,11.99
2023-03-25T07:49:42.992Z,12.17
2023-03-25T07:52:11.306Z,12.25
2023-03-25T07:54:39.448Z,12.49
2023-03-25T07:57:07.633Z,12.85
2023-03-25T07:59:35.865Z,13.19
2023-03-25T08:02:05.831Z,13.39
2023-03-25T08:04:34.108Z,13.38
2023-03-25T08:07:02.646Z,13.38
2023-03-25T08:09:30.837Z,13.43
2023-03-25T08:11:58.973Z,13.70
2023-03-25T08:14:27.233Z,14.09
2023-03-25T08:16:55.417Z,14.18
2023-03-25T08:19:25.035Z,14.48
2023-03-25T08:21:53.263Z,14.24
2023-03-25T08:24:21.449Z,13.88
2023-03-25T08:26:49.749Z,13.73
2023-03-25T08:29:18.347Z,13.55
2023-03-25T08:31:52.405Z,13.22
2023-03-25T08:34:22.307Z,12.97
2023-03-25T08:36:59.097Z,12.95
2023-03-25T08:39:29.886Z,12.73
2023-03-25T08:41:59.214Z,12.59
2023-03-25T08:44:27.755Z,12.50
2023-03-25T08:46:55.965Z,12.35
2023-03-25T08:49:24.301Z,12.26
2023-03-25T08:51:52.503Z,11.99
2023-03-25T08:54:22.041Z,11.95
2023-03-25T08:56:50.413Z,11.97
2023-03-25T08:59:18.694Z,11.99
2023-03-25T09:01:46.939Z,11.90
2023-03-25T09:04:15.549Z,11.74
2023-03-25T09:06:47.529Z,11.52
2023-03-25T09:09:16.542Z,11.45
2023-03-25T09:11:46.519Z,11.47
2023-03-25T09:14:14.681Z,11.45
2023-03-25T09:16:43.048Z,11.43
2023-03-25T09:19:11.462Z,11.35
2023-03-25T09:21:39.531Z,11.38
2023-03-25T09:24:09.511Z,11.38
2023-03-25T09:26:38.405Z,11.46
2023-03-25T09:29:07.913Z,11.50
2023-03-25T09:31:36.236Z,11.53
2023-03-25T09:34:04.515Z,11.63
2023-03-25T09:36:33.000Z,11.61
2023-03-25T09:39:01.397Z,11.55
2023-03-25T09:41:42.649Z,11.52
2023-03-25T09:44:18.552Z,11.46
2023-03-25T09:46:47.168Z,11.33
2023-03-25T09:49:19.984Z,11.22
2023-03-25T09:51:51.021Z,11.13
2023-03-25T09:54:26.290Z,11.02
2023-03-25T09:56:58.461Z,11.05
2023-03-25T09:59:41.521Z,11.02
2023-03-25T10:02:27.470Z,10.96
2023-03-25T10:05:11.422Z,10.97
2023-03-25T10:07:52.576Z,11.09
2023-03-25T10:10:30.194Z,10.97
2023-03-25T10:13:08.409Z,10.98
2023-03-25T10:15:45.224Z,10.94
2023-03-25T10:18:29.002Z,10.90
2023-03-25T10:21:04.768Z,10.99
2023-03-25T10:23:38.554Z,10.96
2023-03-25T10:26:13.346Z,10.96
2023-03-25T10:28:49.317Z,10.93
2023-03-25T10:31:22.155Z,10.86
2023-03-25T10:33:54.339Z,10.94
2023-03-25T10:36:28.040Z,11.06
2023-03-25T10:38:56.387Z,11.13
2023-03-25T10:41:28.732Z,11.08
2023-03-25T10:43:56.911Z,11.05
2023-03-25T10:46:32.669Z,11.09
2023-03-25T10:49:01.052Z,11.00
2023-03-25T10:51:31.513Z,10.98
2023-03-25T10:54:00.771Z,11.05
2023-03-25T10:56:32.832Z,11.10
2023-03-25T10:59:07.430Z,11.12
2023-03-25T11:01:40.174Z,11.30
2023-03-25T11:04:11.539Z,11.49
2023-03-25T11:06:41.365Z,11.45
2023-03-25T11:09:19.495Z,11.54
2023-03-25T11:11:48.576Z,11.58
2023-03-25T11:14:17.555Z,11.57
2023-03-25T11:16:53.051Z,11.46
2023-03-25T11:19:26.653Z,11.36
2023-03-25T11:21:58.409Z,11.54
2023-03-25T11:24:35.388Z,11.61
2023-03-25T11:27:04.272Z,11.52
2023-03-25T11:29:33.193Z,11.61
2023-03-25T11:32:09.550Z,11.63
2023-03-25T11:34:42.406Z,11.48
2023-03-25T11:37:19.126Z,11.27
2023-03-25T11:39:52.261Z,11.22
2023-03-25T11:42:32.752Z,11.21
2023-03-25T11:45:03.822Z,11.15
2023-03-25T11:47:37.841Z,11.18
2023-03-25T11:50:07.731Z,11.24
2023-03-25T11:52:42.616Z,11.31
2023-03-25T11:55:19.121Z,11.27
2023-03-25T11:57:49.045Z,11.47
2023-03-25T12:00:38.664Z,11.46
2023-03-25T12:03:20.831Z,11.74
2023-03-25T12:05:59.407Z,11.72
2023-03-25T12:08:31.379Z,11.86
2023-03-25T12:11:05.894Z,11.86
2023-03-25T12:13:51.469Z,11.97
2023-03-25T12:16:29.520Z,11.94
2023-03-25T12:19:17.786Z,11.94
2023-03-25T12:22:08.133Z,11.91
2023-03-25T12:24:51.837Z,11.97
2023-03-25T12:27:34.922Z,11.96
2023-03-25T12:30:13.727Z,11.88
2023-03-25T12:32:48.982Z,12.07
2023-03-25T12:35:29.727Z,12.04
2023-03-25T12:38:22.041Z,12.10
2023-03-25T12:41:05.246Z,12.14
2023-03-25T12:43:45.551Z,12.13
2023-03-25T12:46:24.951Z,12.22
2023-03-25T12:49:17.873Z,12.47
2023-03-25T12:51:59.164Z,12.50
2023-03-25T12:54:42.945Z,12.62
2023-03-25T12:57:24.925Z,12.86
2023-03-25T13:00:18.084Z,13.26
2023-03-25T13:03:12.655Z,13.74
2023-03-25T13:05:47.877Z,14.57
2023-03-25T13:08:20.513Z,15.10
2023-03-25T13:10:57.491Z,15.37
2023-03-25T13:13:28.258Z,15.67
2023-03-25T13:16:04.182Z,15.50
2023-03-25T13:18:38.126Z,15.08
2023-03-25T13:21:14.002Z,14.99
2023-03-25T13:23:49.470Z,16.00
2023-03-25T13:26:22.424Z,18.67
2023-03-25T13:28:54.366Z,20.98
2023-03-25T13:31:24.744Z,21.78
2023-03-25T13:33:57.472Z,22.44
2023-03-25T13:36:29.480Z,23.30
2023-03-25T13:39:02.839Z,23.91
2023-03-25T13:41:38.394Z,24.32
2023-03-25T13:44:13.312Z,23.44
2023-03-25T13:46:46.318Z,23.51
2023-03-25T13:49:22.053Z,22.70
2023-03-25T13:51:50.348Z,23.03
2023-03-25T13:54:25.278Z,23.87
2023-03-25T13:57:34.188Z,22.64
2023-03-25T14:00:24.940Z,23.56
2023-03-25T14:03:30.473Z,22.81
2023-03-25T14:06:31.002Z,22.19
2023-03-25T14:09:20.951Z,21.75
2023-03-25T14:11:56.396Z,21.46
2023-03-25T14:14:25.709Z,22.00
2023-03-25T14:16:58.860Z,22.75
2023-03-25T14:19:30.926Z,20.98
2023-03-25T14:21:59.940Z,21.39
2023-03-25T14:24:31.551Z,20.95
2023-03-25T14:27:05.943Z,20.96
2023-03-25T14:29:40.326Z,20.96
2023-03-25T14:32:32.563Z,21.40
2023-03-25T14:35:41.450Z,19.96
2023-03-25T14:38:21.919Z,18.91
2023-03-25T14:41:02.916Z,18.47
2023-03-25T14:43:37.828Z,18.08
2023-03-25T14:46:18.620Z,17.98
2023-03-25T14:48:51.721Z,17.32
2023-03-25T14:51:36.476Z,17.14
2023-03-25T14:54:13.544Z,16.85
2023-03-25T14:56:48.254Z,16.67
2023-03-25T14:59:19.926Z,16.36
2023-03-25T15:01:49.250Z,16.24
2023-03-25T15:04:29.921Z,16.23
2023-03-25T15:06:59.330Z,16.15
2023-03-25T15:09:30.788Z,16.21
2023-03-25T15:12:15.659Z,16.32
2023-03-25T15:14:45.300Z,16.23
2023-03-25T15:17:34.026Z,16.15
2023-03-25T15:20:31.836Z,16.13
2023-03-25T15:23:33.322Z,16.08
2023-03-25T15:26:03.385Z,16.09
2023-03-25T15:28:54.365Z,16.31
2023-03-25T15:31:41.183Z,16.33
2023-03-25T15:34:19.725Z,16.35
2023-03-25T15:37:14.288Z,16.23
2023-03-25T15:40:07.093Z,16.26
2023-03-25T15:42:57.139Z,16.18
2023-03-25T15:45:53.520Z,16.11
2023-03-25T15:48:35.680Z,16.03
2023-03-25T15:51:21.589Z,15.79
2023-03-25T15:54:12.930Z,15.78
2023-03-25T15:56:43.815Z,15.65
2023-03-25T15:59:26.195Z,15.59
2023-03-25T16:01:55.809Z,15.53
2023-03-25T16:04:33.737Z,15.31
2023-03-25T16:07:04.950Z,15.11
2023-03-25T16:09:35.336Z,14.98
2023-03-25T16:12:04.546Z,14.76
2023-03-25T16:14:34.753Z,14.64
2023-03-25T16:17:06.604Z,14.48
2023-03-25T16:19:41.529Z,14.32
2023-03-25T16:22:20.419Z,14.22
2023-03-25T16:24:51.350Z,14.14
2023-03-25T16:27:26.315Z,13.98
2023-03-25T16:29:56.898Z,13.80
2023-03-25T16:32:27.157Z,13.54
2023-03-25T16:34:57.879Z,13.41
2023-03-25T16:37:26.786Z,13.42
2023-03-25T16:39:56.649Z,13.40
2023-03-25T16:42:28.910Z,13.29
2023-03-25T16:44:57.067Z,13.24
2023-03-25T16:47:26.014Z,13.13
2023-03-25T16:50:01.493Z,12.98
2023-03-25T16:52:34.154Z,12.93
2023-03-25T16:55:28.883Z,12.76
2023-03-25T16:57:57.145Z,12.71
2023-03-25T17:00:26.809Z,12.71
2023-03-25T17:02:57.092Z,12.73
2023-03-25T17:05:29.879Z,12.70
2023-03-25T17:08:01.976Z,12.65
2023-03-25T17:10:33.313Z,12.66
2023-03-25T17:13:09.004Z,12.63
2023-03-25T17:15:37.829Z,12.51
2023-03-25T17:18:14.641Z,12.52
2023-03-25T17:20:46.111Z,12.08
2023-03-25T17:23:22.934Z,11.87
2023-03-25T17:25:54.910Z,11.73
2023-03-25T17:28:33.476Z,11.37
2023-03-25T17:31:18.790Z,11.22
2023-03-25T17:33:52.873Z,10.99
2023-03-25T17:36:23.473Z,10.93
2023-03-25T17:38:56.408Z,10.77
2023-03-25T17:41:30.338Z,10.57
2023-03-25T17:43:59.797Z,10.41
2023-03-25T17:46:31.262Z,10.22
2023-03-25T17:49:00.754Z,10.17
2023-03-25T17:51:31.875Z,9.94
2023-03-25T17:54:01.243Z,9.86
2023-03-25T17:56:30.421Z,9.82
2023-03-25T17:59:01.704Z,9.83
2023-03-25T18:01:31.435Z,9.59
2023-03-25T18:03:59.863Z,9.37
2023-03-25T18:06:29.122Z,9.15
2023-03-25T18:08:59.934Z,9.09
2023-03-25T18:11:29.932Z,9.01
2023-03-25T18:13:59.376Z,8.82
2023-03-25T18:16:28.971Z,8.70
2023-03-25T18:18:58.197Z,8.56
2023-03-25T18:21:27.435Z,8.54
2023-03-25T18:23:56.129Z,8.42
2023-03-25T18:26:26.807Z,8.39
2023-03-25T18:28:56.351Z,8.32
2023-03-25T18:31:25.610Z,8.23
2023-03-25T18:33:56.242Z,8.11
2023-03-25T18:36:26.485Z,8.06
2023-03-25T18:38:57.082Z,7.95
2023-03-25T18:41:32.072Z,7.92
2023-03-25T18:44:01.704Z,7.78
2023-03-25T18:46:31.782Z,7.63
2023-03-25T18:49:03.251Z,7.60
2023-03-25T18:51:32.321Z,7.54
2023-03-25T18:54:06.083Z,7.48
2023-03-25T18:56:43.441Z,7.31
2023-03-25T18:59:16.966Z,7.31
2023-03-25T19:01:46.469Z,7.29
2023-03-25T19:04:15.744Z,7.24
2023-03-25T19:06:44.708Z,7.17
2023-03-25T19:09:24.337Z,6.98
2023-03-25T19:11:55.207Z,6.92
2023-03-25T19:14:24.859Z,6.86
2023-03-25T19:17:03.712Z,6.79
2023-03-25T19:19:34.238Z,6.79
2023-03-25T19:22:04.212Z,6.69
2023-03-25T19:24:33.821Z,6.69
2023-03-25T19:27:05.968Z,6.64
2023-03-25T19:29:35.621Z,6.59
2023-03-25T19:32:04.766Z,6.52
2023-03-25T19:34:36.069Z,6.44
2023-03-25T19:37:05.556Z,6.37
2023-03-25T19:39:35.589Z,6.37
2023-03-25T19:42:10.205Z,6.16
2023-03-25T19:44:39.786Z,6.04
2023-03-25T19:47:09.836Z,5.97
2023-03-25T19:49:40.452Z,6.00
2023-03-25T19:52:10.308Z,6.06
2023-03-25T19:54:41.684Z,6.04
2023-03-25T19:57:12.820Z,6.02
2023-03-25T19:59:44.906Z,5.90
2023-03-25T20:02:16.087Z,5.86
2023-03-25T20:04:47.037Z,5.85
2023-03-25T20:07:16.542Z,5.85
2023-03-25T20:09:46.186Z,5.80
2023-03-25T20:12:17.055Z,5.78
2023-03-25T20:14:47.175Z,5.68
2023-03-25T20:17:16.579Z,5.72
2023-03-25T20:19:45.761Z,5.73
2023-03-25T20:22:24.184Z,5.72
2023-03-25T20:24:56.095Z,5.63
2023-03-25T20:27:27.950Z,5.64
2023-03-25T20:29:58.594Z,5.57
2023-03-25T20:32:39.775Z,5.52
2023-03-25T20:35:11.936Z,5.49
2023-03-25T20:37:42.655Z,5.50
2023-03-25T20:40:16.392Z,5.45
2023-03-25T20:42:50.549Z,5.43
2023-03-25T20:45:29.722Z,5.38
2023-03-25T20:47:59.981Z,5.27
2023-03-25T20:50:30.474Z,5.15
2023-03-25T20:52:59.572Z,5.10
2023-03-25T20:55:29.831Z,5.04
2023-03-25T20:58:00.626Z,5.04
2023-03-25T21:00:30.884Z,4.96
2023-03-25T21:03:00.224Z,4.99
2023-03-25T21:05:32.330Z,4.89
2023-03-25T21:08:01.922Z,4.86
2023-03-25T21:10:31.104Z,4.78
2023-03-25T21:13:01.145Z,4.79
2023-03-25T21:15:31.607Z,4.80
2023-03-25T21:18:00.658Z,4.77
2023-03-25T21:20:30.153Z,4.81
2023-03-25T21:22:59.609Z,4.72
2023-03-25T21:25:38.202Z,4.70
2023-03-25T21:28:09.147Z,4.69
2023-03-25T21:30:37.534Z,4.53
2023-03-25T21:33:06.508Z,4.50
2023-03-25T21:35:35.902Z,4.48
2023-03-25T21:38:07.554Z,4.48
2023-03-25T21:40:40.123Z,4.47
2023-03-25T21:43:10.688Z,4.45
2023-03-25T21:45:41.129Z,4.40
2023-03-25T21:48:10.587Z,4.42
2023-03-25T21:50:40.173Z,4.38
2023-03-25T21:53:13.711Z,4.35
2023-03-25T21:55:44.844Z,4.34
2023-03-25T21:58:14.822Z,4.36
2023-03-25T22:00:43.147Z,4.26
2023-03-25T22:03:12.224Z,4.25
2023-03-25T22:05:40.838Z,4.22
2023-03-25T22:08:09.020Z,4.23
2023-03-25T22:10:37.429Z,4.26
2023-03-25T22:13:06.120Z,4.19
2023-03-25T22:15:36.286Z,4.16
2023-03-25T22:18:04.779Z,4.13
2023-03-25T22:20:36.427Z,4.11
2023-03-25T22:23:05.424Z,4.12
2023-03-25T22:25:34.436Z,4.18
2023-03-25T22:28:02.888Z,4.16
2023-03-25T22:30:31.471Z,4.11
2023-03-25T22:33:06.884Z,4.13
2023-03-25T22:35:38.671Z,4.12
2023-03-25T22:38:07.432Z,4.03
2023-03-25T22:40:38.976Z,4.08
2023-03-25T22:43:10.929Z,4.09
2023-03-25T22:45:39.675Z,4.06
2023-03-25T22:48:09.574Z,4.04
2023-03-25T22:50:37.743Z,4.06
2023-03-25T22:53:05.871Z,4.07
2023-03-25T22:55:35.216Z,3.97
2023-03-25T22:58:03.346Z,3.81
2023-03-25T23:00:31.464Z,3.77
2023-03-25T23:02:59.697Z,3.81
2023-03-25T23:05:29.377Z,3.73
2023-03-25T23:07:57.514Z,3.75
2023-03-25T23:10:25.699Z,3.70
2023-03-25T23:12:53.929Z,3.78
2023-03-25T23:15:22.213Z,3.68
2023-03-25T23:17:50.632Z,3.60
2023-03-25T23:20:19.091Z,3.65
2023-03-25T23:22:48.572Z,3.62
2023-03-25T23:25:16.758Z,3.59
2023-03-25T23:27:45.335Z,3.54
2023-03-25T23:30:13.937Z,3.46
2023-03-25T23:32:42.353Z,3.50
2023-03-25T23:35:11.073Z,3.53
2023-03-25T23:37:41.591Z,3.51
2023-03-25T23:40:12.635Z,3.41
2023-03-25T23:42:40.734Z,3.37
2023-03-25T23:45:10.890Z,3.32
2023-03-25T23:47:39.121Z,3.34
2023-03-25T23:50:08.348Z,3.38
2023-03-25T23:52:36.494Z,3.35
2023-03-25T23:55:04.990Z,3.32
2023-03-25T23:57:34.577Z,3.32
